createdAt,value
2023-09-08T00:02:20.841Z,19.049999
2023-09-08T00:05:45.991Z,19.059999
2023-09-08T00:09:11.165Z,19.07
2023-09-08T00:12:36.340Z,19.09
2023-09-08T00:16:01.532Z,19.09
2023-09-08T00:19:26.774Z,19.110001
2023-09-08T00:22:51.917Z,19.139999
2023-09-08T00:26:17.057Z,19.17
2023-09-08T00:29:42.292Z,19.18
2023-09-08T00:33:07.598Z,19.18
2023-09-08T00:36:32.755Z,19.17
2023-09-08T00:39:57.890Z,19.17
2023-09-08T00:43:23.083Z,19.15
2023-09-08T00:46:48.261Z,19.139999
2023-09-08T00:50:13.480Z,19.139999
2023-09-08T00:53:38.675Z,19.129999
2023-09-08T00:57:03.831Z,19.1
2023-09-08T01:00:29.027Z,19.07
2023-09-08T01:03:54.224Z,19.030001
2023-09-08T01:07:19.344Z,18.98
2023-09-08T01:10:44.557Z,18.950001
2023-09-08T01:14:09.725Z,18.91
2023-09-08T01:17:34.939Z,18.879999
2023-09-08T01:21:00.091Z,18.870001
2023-09-08T01:24:25.291Z,18.85
2023-09-08T01:27:50.459Z,18.83
2023-09-08T01:31:15.674Z,18.83
2023-09-08T01:34:40.782Z,18.83
2023-09-08T01:38:06.023Z,18.809999
2023-09-08T01:41:31.178Z,18.77
2023-09-08T01:44:56.416Z,18.76
2023-09-08T01:48:21.545Z,18.74
2023-09-08T01:51:46.728Z,18.700001
2023-09-08T01:55:11.885Z,18.68
2023-09-08T01:58:37.291Z,18.65
2023-09-08T02:02:02.295Z,18.59
2023-09-08T02:05:27.500Z,18.549999
2023-09-08T02:08:52.627Z,18.51
2023-09-08T02:12:17.795Z,18.5
2023-09-08T02:15:43.083Z,18.49
2023-09-08T02:19:08.182Z,18.5
2023-09-08T02:22:33.801Z,18.5
2023-09-08T02:25:58.988Z,18.5
2023-09-08T02:29:24.156Z,18.51
2023-09-08T02:32:49.361Z,18.51
2023-09-08T02:36:14.573Z,18.5
2023-09-08T02:39:39.769Z,18.469999
2023-09-08T02:43:04.902Z,18.42
2023-09-08T02:46:30.119Z,18.34
2023-09-08T02:49:55.281Z,18.26
2023-09-08T02:53:20.477Z,18.200001
2023-09-08T02:56:45.630Z,18.09
2023-09-08T03:00:11.768Z,18.030001
2023-09-08T03:03:37.042Z,18.01
2023-09-08T03:07:02.172Z,18.02
2023-09-08T03:10:27.365Z,18.02
2023-09-08T03:13:52.630Z,18.02
2023-09-08T03:17:17.862Z,17.98
2023-09-08T03:20:43.042Z,17.93
2023-09-08T03:24:08.283Z,17.879999
2023-09-08T03:27:33.533Z,17.82
2023-09-08T03:30:58.714Z,17.780001
2023-09-08T03:34:24.021Z,17.76
2023-09-08T03:37:49.119Z,17.74
2023-09-08T03:41:14.301Z,17.719999
2023-09-08T03:44:39.498Z,17.73
2023-09-08T03:48:04.681Z,17.77
2023-09-08T03:51:29.900Z,17.799999
2023-09-08T03:54:55.086Z,17.85
2023-09-08T03:58:20.274Z,17.889999
2023-09-08T04:01:45.523Z,17.9
2023-09-08T04:05:10.691Z,17.92
2023-09-08T04:08:35.821Z,17.98
2023-09-08T04:12:01.093Z,18.07
2023-09-08T04:15:26.663Z,18.17
2023-09-08T04:18:52.998Z,18.209999
2023-09-08T04:22:17.085Z,18.25
2023-09-08T04:25:42.269Z,18.280001
2023-09-08T04:29:07.471Z,18.290001
2023-09-08T04:32:32.678Z,18.309999
2023-09-08T04:35:57.927Z,18.309999
2023-09-08T04:39:23.083Z,18.309999
2023-09-08T04:42:48.261Z,18.290001
2023-09-08T04:46:13.489Z,18.24
2023-09-08T04:49:38.785Z,18.219999
2023-09-08T04:53:03.985Z,18.16
2023-09-08T04:56:29.215Z,18.08
2023-09-08T04:59:54.354Z,18.030001
2023-09-08T05:03:19.837Z,17.969999
2023-09-08T05:06:44.820Z,17.91
2023-09-08T05:10:10.004Z,17.860001
2023-09-08T05:13:35.190Z,17.82
2023-09-08T05:17:00.426Z,17.82
2023-09-08T05:20:25.615Z,17.84
2023-09-08T05:23:50.879Z,17.85
2023-09-08T05:27:58.232Z,17.860001
2023-09-08T05:37:55.468Z,17.98
2023-09-08T05:41:30.054Z,18.049999
2023-09-08T05:44:55.245Z,18.129999
2023-09-08T05:48:20.481Z,18.200001
2023-09-08T05:51:45.591Z,18.290001
2023-09-08T05:55:10.814Z,18.35
2023-09-08T05:58:36.285Z,18.42
2023-09-08T06:02:01.237Z,18.52
2023-09-08T06:05:26.344Z,18.59
2023-09-08T06:08:51.527Z,18.66
2023-09-08T06:12:16.718Z,18.75
2023-09-08T06:15:41.868Z,18.85
2023-09-08T06:19:07.078Z,18.92
2023-09-08T06:22:32.236Z,19.01
2023-09-08T06:25:57.458Z,19.09
2023-09-08T06:29:22.604Z,19.16
2023-09-08T06:32:47.893Z,19.209999
2023-09-08T06:36:13.024Z,19.26
2023-09-08T06:39:38.198Z,19.299999
2023-09-08T06:43:04.155Z,19.34
2023-09-08T06:46:28.588Z,19.389999
2023-09-08T06:49:53.818Z,19.450001
2023-09-08T06:53:19.754Z,19.52
2023-09-08T06:56:44.897Z,19.57
2023-09-08T07:00:10.078Z,19.639999
2023-09-08T07:03:35.457Z,19.709999
2023-09-08T07:07:00.473Z,19.780001
2023-09-08T07:10:25.719Z,19.83
2023-09-08T07:13:50.876Z,19.93
2023-09-08T07:17:16.149Z,20.01
2023-09-08T07:20:41.263Z,20.129999
2023-09-08T07:24:06.476Z,20.219999
2023-09-08T07:27:31.719Z,20.35
2023-09-08T07:30:56.911Z,20.469999
2023-09-08T07:34:22.021Z,20.559999
2023-09-08T07:37:47.248Z,20.709999
2023-09-08T07:41:12.414Z,20.82
2023-09-08T07:44:37.781Z,20.92
2023-09-08T07:48:02.802Z,21.040001
2023-09-08T07:51:27.961Z,21.15
2023-09-08T07:54:53.143Z,21.24
2023-09-08T07:58:18.290Z,21.34
2023-09-08T08:01:43.534Z,21.440001
2023-09-08T08:05:10.213Z,21.530001
2023-09-08T08:08:34.075Z,21.620001
2023-09-08T08:12:00.239Z,21.68
2023-09-08T08:15:25.393Z,21.75
2023-09-08T08:18:50.622Z,21.83
2023-09-08T08:22:15.715Z,21.91
2023-09-08T08:25:40.894Z,21.969999
2023-09-08T08:29:06.099Z,22.049999
2023-09-08T08:32:31.289Z,22.129999
2023-09-08T08:35:56.545Z,22.209999
2023-09-08T08:39:21.665Z,22.24
2023-09-08T08:42:46.844Z,22.309999
2023-09-08T08:46:12.054Z,22.379999
2023-09-08T08:49:37.174Z,22.459999
2023-09-08T08:53:02.392Z,22.549999
2023-09-08T08:56:27.540Z,22.629999
2023-09-08T08:59:52.831Z,22.73
2023-09-08T09:03:18.026Z,22.84
2023-09-08T09:06:43.127Z,22.93
2023-09-08T09:10:08.404Z,23.01
2023-09-08T09:13:33.515Z,23.08
2023-09-08T09:16:58.686Z,23.129999
2023-09-08T09:20:23.860Z,23.23
2023-09-08T09:23:49.065Z,23.32
2023-09-08T09:27:14.377Z,23.4
2023-09-08T09:30:39.497Z,23.459999
2023-09-08T09:34:04.643Z,23.549999
2023-09-08T09:37:29.848Z,23.65
2023-09-08T09:40:54.981Z,23.77
2023-09-08T09:44:20.190Z,23.889999
2023-09-08T09:47:45.381Z,23.99
2023-09-08T09:51:10.658Z,24.07
2023-09-08T09:54:35.870Z,24.18
2023-09-08T09:58:01.044Z,24.280001
2023-09-08T10:01:26.299Z,24.389999
2023-09-08T10:04:51.517Z,24.5
2023-09-08T10:08:16.701Z,24.610001
2023-09-08T10:11:41.939Z,24.719999
2023-09-08T10:15:07.159Z,24.84
2023-09-08T10:18:32.512Z,24.950001
2023-09-08T10:21:57.621Z,25.059999
2023-09-08T10:25:22.813Z,25.200001
2023-09-08T10:28:48.058Z,25.35
2023-09-08T10:32:13.358Z,25.51
2023-09-08T10:35:38.527Z,25.65
2023-09-08T10:39:04.175Z,25.799999
2023-09-08T10:42:29.599Z,25.940001
2023-09-08T10:45:54.814Z,26.08
2023-09-08T10:49:20.073Z,26.200001
2023-09-08T10:52:45.436Z,26.32
2023-09-08T10:56:17.574Z,26.440001
2023-09-08T10:59:35.691Z,26.559999
2023-09-08T11:03:00.957Z,26.67
2023-09-08T11:06:26.099Z,26.77
2023-09-08T11:09:51.318Z,26.860001
2023-09-08T11:13:16.510Z,26.93
2023-09-08T11:16:41.759Z,27.030001
2023-09-08T11:20:06.990Z,27.110001
2023-09-08T11:23:32.248Z,27.17
2023-09-08T11:27:25.568Z,27.219999
2023-09-08T11:31:34.161Z,27.290001
2023-09-08T11:35:47.484Z,27.389999
2023-09-08T11:43:33.633Z,27.49
2023-09-08T11:46:58.958Z,27.57
2023-09-08T11:50:24.055Z,27.629999
2023-09-08T11:53:49.285Z,27.68
2023-09-08T11:57:14.575Z,27.709999
2023-09-08T12:00:39.842Z,27.74
2023-09-08T12:04:05.063Z,27.780001
2023-09-08T12:07:30.267Z,27.809999
2023-09-08T12:10:55.544Z,27.84
2023-09-08T12:14:20.779Z,27.860001
2023-09-08T12:17:46.084Z,27.879999
2023-09-08T12:21:11.267Z,27.91
2023-09-08T12:24:36.484Z,27.940001
2023-09-08T12:28:01.745Z,27.98
2023-09-08T12:31:27.006Z,28.01
2023-09-08T12:34:52.211Z,27.99
2023-09-08T12:38:17.408Z,28
2023-09-08T12:41:42.648Z,28.01
2023-09-08T12:45:07.870Z,28.030001
2023-09-08T12:48:33.110Z,28.01
2023-09-08T12:51:58.385Z,28.01
2023-09-08T12:55:23.578Z,28.01
2023-09-08T12:58:48.779Z,28.040001
2023-09-08T13:02:14.020Z,28.030001
2023-09-08T13:05:39.275Z,28.02
2023-09-08T13:09:04.477Z,28.01
2023-09-08T13:12:29.672Z,28.01
2023-09-08T13:15:54.926Z,28.02
2023-09-08T13:19:20.121Z,28.02
2023-09-08T13:22:45.426Z,28
2023-09-08T13:26:10.987Z,27.99
2023-09-08T13:29:36.202Z,28
2023-09-08T13:33:01.426Z,28.01
2023-09-08T13:36:26.649Z,28
2023-09-08T13:39:51.941Z,28
2023-09-08T13:43:17.191Z,28.01
2023-09-08T13:46:42.464Z,28.02
2023-09-08T13:50:09.605Z,28.02
2023-09-08T13:53:42.355Z,27.99
2023-09-08T13:57:00.433Z,27.950001
2023-09-08T14:00:24.884Z,27.940001
2023-09-08T14:07:17.792Z,27.93
2023-09-08T14:10:42.108Z,27.91
2023-09-08T14:14:04.336Z,27.91
2023-09-08T14:17:29.594Z,27.91
2023-09-08T14:20:54.757Z,27.9
2023-09-08T14:24:19.969Z,27.889999
2023-09-08T14:27:45.174Z,27.879999
2023-09-08T14:31:10.435Z,27.870001
2023-09-08T14:34:35.702Z,27.860001
2023-09-08T14:38:00.921Z,27.84
2023-09-08T14:41:26.183Z,27.84
2023-09-08T14:44:51.381Z,27.82
2023-09-08T14:48:17.680Z,27.799999
2023-09-08T14:51:47.212Z,27.780001
2023-09-08T14:55:13.815Z,27.76
2023-09-08T14:58:39.073Z,27.74
2023-09-08T15:02:09.560Z,27.73
2023-09-08T15:05:34.820Z,27.700001
2023-09-08T15:09:10.804Z,27.68
2023-09-08T15:46:12.836Z,25.129999
2023-09-08T15:49:37.984Z,26.02
2023-09-08T15:53:03.230Z,26.17
2023-09-08T15:56:28.472Z,26.309999
2023-09-08T15:59:53.706Z,26.42
2023-09-08T16:03:19.090Z,26.51
2023-09-08T16:06:44.202Z,26.59
2023-09-08T16:10:09.433Z,26.620001
2023-09-08T16:13:34.893Z,26.629999
2023-09-08T16:16:59.896Z,26.65
2023-09-08T16:20:25.224Z,26.639999
2023-09-08T16:23:50.371Z,26.629999
2023-09-08T16:27:15.595Z,26.629999
2023-09-08T16:30:40.857Z,26.610001
2023-09-08T16:34:06.041Z,26.559999
2023-09-08T16:37:31.362Z,26.49
2023-09-08T16:40:56.587Z,26.389999
2023-09-08T16:44:21.838Z,26.299999
2023-09-08T16:47:47.079Z,26.23
2023-09-08T16:51:12.294Z,26.129999
2023-09-08T16:54:37.520Z,26.02
2023-09-08T16:58:02.730Z,25.92
2023-09-08T17:01:28.014Z,25.83
2023-09-08T17:04:53.213Z,25.700001
2023-09-08T17:08:18.440Z,25.57
2023-09-08T17:11:43.698Z,25.440001
2023-09-08T17:15:08.904Z,25.309999
2023-09-08T17:18:34.175Z,25.18
2023-09-08T17:21:59.580Z,25.040001
2023-09-08T17:25:24.599Z,24.93
2023-09-08T17:28:49.890Z,24.799999
2023-09-08T17:32:15.079Z,24.67
2023-09-08T17:35:40.324Z,24.52
2023-09-08T17:39:05.553Z,24.35
2023-09-08T17:42:30.761Z,24.120001
2023-09-08T17:45:56.064Z,23.879999
2023-09-08T17:49:22.524Z,23.65
2023-09-08T17:52:47.747Z,23.440001
2023-09-08T17:56:12.968Z,23.23
2023-09-08T17:59:38.221Z,23.02
2023-09-08T18:03:03.609Z,22.860001
2023-09-08T18:06:28.676Z,22.76
2023-09-08T18:09:53.927Z,22.65
2023-09-08T18:13:19.166Z,22.530001
2023-09-08T18:16:44.359Z,22.42
2023-09-08T18:20:09.492Z,22.360001
2023-09-08T18:23:34.939Z,22.299999
2023-09-08T18:26:59.812Z,22.23
2023-09-08T18:30:25.023Z,22.129999
2023-09-08T18:33:50.245Z,22.01
2023-09-08T18:37:15.475Z,21.9
2023-09-08T18:40:40.662Z,21.85
2023-09-08T18:44:05.882Z,21.790001
2023-09-08T18:47:31.193Z,21.74
2023-09-08T18:50:56.355Z,21.6
2023-09-08T18:54:21.651Z,21.49
2023-09-08T18:57:46.830Z,21.360001
2023-09-08T19:01:12.058Z,21.190001
2023-09-08T19:04:43.621Z,21.030001
2023-09-08T19:08:33.001Z,20.940001
2023-09-08T19:11:56.101Z,20.889999
2023-09-08T19:15:21.382Z,20.85
2023-09-08T19:18:46.531Z,20.84
2023-09-08T19:22:11.833Z,20.82
2023-09-08T19:25:36.962Z,20.790001
2023-09-08T19:29:03.152Z,20.790001
2023-09-08T19:32:27.467Z,20.790001
2023-09-08T19:35:52.733Z,20.809999
2023-09-08T19:39:17.929Z,20.82
2023-09-08T19:42:43.100Z,20.809999
2023-09-08T19:46:08.318Z,20.76
2023-09-08T19:49:33.465Z,20.66
2023-09-08T19:52:58.620Z,20.639999
2023-09-08T19:56:23.784Z,20.610001
2023-09-08T19:59:48.989Z,20.620001
2023-09-08T20:03:14.276Z,20.639999
2023-09-08T20:06:39.640Z,20.690001
2023-09-08T20:10:04.513Z,20.700001
2023-09-08T20:13:29.657Z,20.700001
2023-09-08T20:16:54.856Z,20.719999
2023-09-08T20:20:20.086Z,20.709999
2023-09-08T20:23:45.238Z,20.719999
2023-09-08T20:27:10.448Z,20.690001
2023-09-08T20:30:35.653Z,20.610001
2023-09-08T20:34:00.837Z,20.48
2023-09-08T20:37:26.016Z,20.360001
2023-09-08T20:40:51.182Z,20.32
2023-09-08T20:44:16.398Z,20.290001
2023-09-08T20:47:41.594Z,20.280001
2023-09-08T20:51:06.740Z,20.27
2023-09-08T20:54:31.958Z,20.24
2023-09-08T20:57:57.096Z,20.139999
2023-09-08T21:01:22.314Z,20.120001
2023-09-08T21:04:47.533Z,20.110001
2023-09-08T21:08:12.687Z,20.129999
2023-09-08T21:11:37.867Z,20.17
2023-09-08T21:15:03.021Z,20.190001
2023-09-08T21:18:28.186Z,20.209999
2023-09-08T21:21:53.338Z,20.24
2023-09-08T21:25:18.553Z,20.219999
2023-09-08T21:28:43.773Z,20.209999
2023-09-08T21:32:08.897Z,20.190001
2023-09-08T21:35:34.091Z,20.190001
2023-09-08T21:39:01.334Z,20.190001
2023-09-08T21:42:24.449Z,20.15
2023-09-08T21:45:49.699Z,20.129999
2023-09-08T21:49:14.876Z,20.09
2023-09-08T21:52:40.162Z,20
2023-09-08T21:56:05.179Z,19.889999
2023-09-08T21:59:31.620Z,19.799999
2023-09-08T22:02:55.777Z,19.690001
2023-09-08T22:06:20.741Z,19.57
2023-09-08T22:09:45.912Z,19.49
2023-09-08T22:13:11.123Z,19.469999
2023-09-08T22:16:36.301Z,19.469999
2023-09-08T22:20:01.545Z,19.459999
2023-09-08T22:23:26.727Z,19.43
2023-09-08T22:26:51.887Z,19.370001
2023-09-08T22:30:17.067Z,19.290001
2023-09-08T22:33:42.675Z,19.219999
2023-09-08T22:37:07.447Z,19.139999
2023-09-08T22:40:32.605Z,19.120001
2023-09-08T22:43:57.844Z,19.07
2023-09-08T22:47:23.003Z,19.040001
2023-09-08T22:50:48.197Z,19.059999
2023-09-08T22:54:13.389Z,19.030001
2023-09-08T22:57:38.610Z,18.93
2023-09-08T23:01:03.715Z,18.83
2023-09-08T23:04:28.892Z,18.700001
2023-09-08T23:07:54.113Z,18.610001
2023-09-08T23:11:19.303Z,18.559999
2023-09-08T23:14:53.673Z,18.559999
2023-09-08T23:18:09.771Z,18.57
2023-09-08T23:21:34.869Z,18.540001
2023-09-08T23:25:00.059Z,18.549999
2023-09-08T23:28:25.278Z,18.58
2023-09-08T23:31:50.428Z,18.57
2023-09-08T23:35:15.682Z,18.549999
2023-09-08T23:38:40.819Z,18.49
2023-09-08T23:42:06.001Z,18.43
2023-09-08T23:45:31.223Z,18.379999
2023-09-08T23:48:57.864Z,18.379999
2023-09-08T23:52:21.538Z,18.4
2023-09-08T23:55:46.733Z,18.41
2023-09-08T23:59:11.897Z,18.43
